sensor_id;sensor_type;location;lat;lon;timestamp;pressure;altitude;pressure_sealevel;temperature;humidity
82033;BME280;71595;52.180;4.512;2024-01-11T00:01:12;103421.09;;;-2.18;63.09
82033;BME280;71595;52.180;4.512;2024-01-11T00:03:37;103420.03;;;-2.17;63.35
82033;BME280;71595;52.180;4.512;2024-01-11T00:06:03;103410.28;;;-2.18;63.28
82033;BME280;71595;52.180;4.512;2024-01-11T00:08:29;103422.56;;;-2.15;63.36
82033;BME280;71595;52.180;4.512;2024-01-11T00:10:55;103419.41;;;-2.19;63.27
82033;BME280;71595;52.180;4.512;2024-01-11T00:13:20;103411.72;;;-2.15;63.01
82033;BME280;71595;52.180;4.512;2024-01-11T00:15:46;103413.88;;;-2.11;62.67
82033;BME280;71595;52.180;4.512;2024-01-11T00:18:11;103410.78;;;-2.08;62.53
82033;BME280;71595;52.180;4.512;2024-01-11T00:20:37;103415.94;;;-2.13;62.72
82033;BME280;71595;52.180;4.512;2024-01-11T00:23:02;103419.22;;;-2.18;62.85
82033;BME280;71595;52.180;4.512;2024-01-11T00:25:28;103416.69;;;-2.19;62.73
82033;BME280;71595;52.180;4.512;2024-01-11T00:27:53;103415.88;;;-2.20;62.72
82033;BME280;71595;52.180;4.512;2024-01-11T00:30:19;103424.81;;;-2.19;63.17
82033;BME280;71595;52.180;4.512;2024-01-11T00:32:44;103421.28;;;-2.20;63.80
82033;BME280;71595;52.180;4.512;2024-01-11T00:35:10;103418.09;;;-2.23;63.53
82033;BME280;71595;52.180;4.512;2024-01-11T00:37:35;103414.19;;;-2.21;62.96
82033;BME280;71595;52.180;4.512;2024-01-11T00:40:01;103408.31;;;-2.24;62.41
82033;BME280;71595;52.180;4.512;2024-01-11T00:42:26;103406.88;;;-2.20;62.79
82033;BME280;71595;52.180;4.512;2024-01-11T00:44:51;103414.56;;;-2.24;62.62
82033;BME280;71595;52.180;4.512;2024-01-11T00:47:17;103425.66;;;-2.19;62.47
82033;BME280;71595;52.180;4.512;2024-01-11T00:49:42;103415.00;;;-2.20;63.02
82033;BME280;71595;52.180;4.512;2024-01-11T00:52:08;103416.63;;;-2.26;63.60
82033;BME280;71595;52.180;4.512;2024-01-11T00:54:34;103417.09;;;-2.22;63.51
82033;BME280;71595;52.180;4.512;2024-01-11T00:56:59;103412.03;;;-2.25;63.31
82033;BME280;71595;52.180;4.512;2024-01-11T00:59:25;103409.09;;;-2.30;63.37
82033;BME280;71595;52.180;4.512;2024-01-11T01:01:50;103405.69;;;-2.32;63.10
82033;BME280;71595;52.180;4.512;2024-01-11T01:04:16;103406.94;;;-2.35;63.69
82033;BME280;71595;52.180;4.512;2024-01-11T01:06:41;103410.28;;;-2.33;63.41
82033;BME280;71595;52.180;4.512;2024-01-11T01:09:07;103417.59;;;-2.33;63.39
82033;BME280;71595;52.180;4.512;2024-01-11T01:11:33;103423.19;;;-2.35;63.76
82033;BME280;71595;52.180;4.512;2024-01-11T01:13:58;103418.97;;;-2.38;64.13
82033;BME280;71595;52.180;4.512;2024-01-11T01:16:23;103424.84;;;-2.34;63.96
82033;BME280;71595;52.180;4.512;2024-01-11T01:18:49;103426.09;;;-2.37;63.86
82033;BME280;71595;52.180;4.512;2024-01-11T01:21:14;103426.53;;;-2.33;63.95
82033;BME280;71595;52.180;4.512;2024-01-11T01:23:40;103424.66;;;-2.32;64.36
82033;BME280;71595;52.180;4.512;2024-01-11T01:26:06;103424.00;;;-2.35;64.19
82033;BME280;71595;52.180;4.512;2024-01-11T01:28:31;103420.84;;;-2.38;64.83
82033;BME280;71595;52.180;4.512;2024-01-11T01:30:57;103431.00;;;-2.40;65.03
82033;BME280;71595;52.180;4.512;2024-01-11T01:33:22;103430.19;;;-2.41;65.22
82033;BME280;71595;52.180;4.512;2024-01-11T01:35:48;103429.91;;;-2.46;65.54
82033;BME280;71595;52.180;4.512;2024-01-11T01:38:13;103435.59;;;-2.41;65.79
82033;BME280;71595;52.180;4.512;2024-01-11T01:40:39;103431.50;;;-2.37;65.87
82033;BME280;71595;52.180;4.512;2024-01-11T01:43:07;103442.31;;;-2.37;66.57
82033;BME280;71595;52.180;4.512;2024-01-11T01:45:36;103441.94;;;-2.33;66.82
82033;BME280;71595;52.180;4.512;2024-01-11T01:48:02;103438.19;;;-2.32;66.98
82033;BME280;71595;52.180;4.512;2024-01-11T01:50:28;103434.47;;;-2.31;66.80
82033;BME280;71595;52.180;4.512;2024-01-11T01:52:54;103434.84;;;-2.35;66.59
82033;BME280;71595;52.180;4.512;2024-01-11T01:55:20;103440.25;;;-2.35;67.12
82033;BME280;71595;52.180;4.512;2024-01-11T01:57:48;103444.47;;;-2.32;66.88
82033;BME280;71595;52.180;4.512;2024-01-11T02:00:15;103450.91;;;-2.33;66.42
82033;BME280;71595;52.180;4.512;2024-01-11T02:02:43;103436.91;;;-2.37;66.59
82033;BME280;71595;52.180;4.512;2024-01-11T02:05:10;103445.88;;;-2.36;66.90
82033;BME280;71595;52.180;4.512;2024-01-11T02:07:36;103445.22;;;-2.38;66.95
82033;BME280;71595;52.180;4.512;2024-01-11T02:10:02;103445.03;;;-2.37;67.38
82033;BME280;71595;52.180;4.512;2024-01-11T02:12:28;103438.75;;;-2.37;66.77
82033;BME280;71595;52.180;4.512;2024-01-11T02:14:54;103441.94;;;-2.48;67.32
82033;BME280;71595;52.180;4.512;2024-01-11T02:17:20;103456.69;;;-2.51;67.62
82033;BME280;71595;52.180;4.512;2024-01-11T02:19:46;103450.53;;;-2.45;68.09
82033;BME280;71595;52.180;4.512;2024-01-11T02:22:20;103457.06;;;-2.54;67.97
82033;BME280;71595;52.180;4.512;2024-01-11T02:24:46;103456.59;;;-2.58;68.32
82033;BME280;71595;52.180;4.512;2024-01-11T02:27:12;103462.38;;;-2.61;68.73
82033;BME280;71595;52.180;4.512;2024-01-11T02:29:37;103460.50;;;-2.60;69.01
82033;BME280;71595;52.180;4.512;2024-01-11T02:32:03;103460.44;;;-2.52;68.55
82033;BME280;71595;52.180;4.512;2024-01-11T02:34:30;103452.41;;;-2.60;69.42
82033;BME280;71595;52.180;4.512;2024-01-11T02:36:55;103456.22;;;-2.55;69.58
82033;BME280;71595;52.180;4.512;2024-01-11T02:39:22;103455.41;;;-2.55;69.00
82033;BME280;71595;52.180;4.512;2024-01-11T02:41:50;103452.03;;;-2.57;69.00
82033;BME280;71595;52.180;4.512;2024-01-11T02:44:15;103456.97;;;-2.61;69.03
82033;BME280;71595;52.180;4.512;2024-01-11T02:46:41;103449.06;;;-2.62;69.48
82033;BME280;71595;52.180;4.512;2024-01-11T02:49:06;103451.94;;;-2.64;69.66
82033;BME280;71595;52.180;4.512;2024-01-11T02:51:32;103451.31;;;-2.66;70.19
82033;BME280;71595;52.180;4.512;2024-01-11T02:53:57;103443.56;;;-2.69;69.99
82033;BME280;71595;52.180;4.512;2024-01-11T02:56:23;103442.72;;;-2.69;69.77
82033;BME280;71595;52.180;4.512;2024-01-11T02:58:49;103443.00;;;-2.64;69.80
82033;BME280;71595;52.180;4.512;2024-01-11T03:01:14;103442.72;;;-2.69;69.76
82033;BME280;71595;52.180;4.512;2024-01-11T03:03:39;103445.25;;;-2.68;69.39
82033;BME280;71595;52.180;4.512;2024-01-11T03:06:05;103446.00;;;-2.74;69.76
82033;BME280;71595;52.180;4.512;2024-01-11T03:08:31;103448.31;;;-2.71;70.23
82033;BME280;71595;52.180;4.512;2024-01-11T03:10:56;103443.84;;;-2.79;70.51
82033;BME280;71595;52.180;4.512;2024-01-11T03:13:23;103448.56;;;-2.81;70.56
82033;BME280;71595;52.180;4.512;2024-01-11T03:15:48;103453.44;;;-2.91;71.02
82033;BME280;71595;52.180;4.512;2024-01-11T03:18:13;103462.66;;;-2.85;71.08
82033;BME280;71595;52.180;4.512;2024-01-11T03:20:39;103456.31;;;-2.78;71.00
82033;BME280;71595;52.180;4.512;2024-01-11T03:23:05;103458.00;;;-2.77;70.54
82033;BME280;71595;52.180;4.512;2024-01-11T03:25:30;103462.22;;;-2.74;72.00
82033;BME280;71595;52.180;4.512;2024-01-11T03:27:57;103456.06;;;-2.68;71.91
82033;BME280;71595;52.180;4.512;2024-01-11T03:30:24;103465.56;;;-2.72;71.94
82033;BME280;71595;52.180;4.512;2024-01-11T03:32:49;103467.72;;;-2.67;71.76
82033;BME280;71595;52.180;4.512;2024-01-11T03:35:15;103470.50;;;-2.61;71.84
82033;BME280;71595;52.180;4.512;2024-01-11T03:37:40;103472.00;;;-2.58;71.63
82033;BME280;71595;52.180;4.512;2024-01-11T03:40:06;103460.13;;;-2.57;71.84
82033;BME280;71595;52.180;4.512;2024-01-11T03:42:31;103463.63;;;-2.63;71.68
82033;BME280;71595;52.180;4.512;2024-01-11T03:44:57;103457.34;;;-2.64;71.54
82033;BME280;71595;52.180;4.512;2024-01-11T03:47:22;103447.75;;;-2.66;72.10
82033;BME280;71595;52.180;4.512;2024-01-11T03:49:47;103456.34;;;-2.63;72.46
82033;BME280;71595;52.180;4.512;2024-01-11T03:52:13;103447.56;;;-2.65;72.26
82033;BME280;71595;52.180;4.512;2024-01-11T03:54:38;103456.59;;;-2.58;72.23
82033;BME280;71595;52.180;4.512;2024-01-11T03:57:07;103456.59;;;-2.58;72.59
82033;BME280;71595;52.180;4.512;2024-01-11T03:59:32;103460.63;;;-2.54;73.09
82033;BME280;71595;52.180;4.512;2024-01-11T04:01:59;103458.75;;;-2.53;73.13
82033;BME280;71595;52.180;4.512;2024-01-11T04:04:25;103456.03;;;-2.53;73.21
82033;BME280;71595;52.180;4.512;2024-01-11T04:06:51;103448.22;;;-2.63;73.82
82033;BME280;71595;52.180;4.512;2024-01-11T04:09:17;103446.06;;;-2.67;73.85
82033;BME280;71595;52.180;4.512;2024-01-11T04:11:42;103452.88;;;-2.72;74.12
82033;BME280;71595;52.180;4.512;2024-01-11T04:14:08;103461.00;;;-2.72;75.08
82033;BME280;71595;52.180;4.512;2024-01-11T04:16:33;103484.59;;;-2.65;74.65
82033;BME280;71595;52.180;4.512;2024-01-11T04:18:59;103474.44;;;-2.63;75.26
82033;BME280;71595;52.180;4.512;2024-01-11T04:21:26;103484.50;;;-2.57;75.06
82033;BME280;71595;52.180;4.512;2024-01-11T04:23:55;103477.88;;;-2.55;74.91
82033;BME280;71595;52.180;4.512;2024-01-11T04:26:21;103484.13;;;-2.54;75.64
82033;BME280;71595;52.180;4.512;2024-01-11T04:28:47;103486.47;;;-2.51;75.12
82033;BME280;71595;52.180;4.512;2024-01-11T04:31:14;103489.81;;;-2.64;75.63
82033;BME280;71595;52.180;4.512;2024-01-11T04:33:43;103500.19;;;-2.67;75.20
82033;BME280;71595;52.180;4.512;2024-01-11T04:36:09;103497.09;;;-2.64;75.61
82033;BME280;71595;52.180;4.512;2024-01-11T04:38:35;103496.09;;;-2.63;75.33
82033;BME280;71595;52.180;4.512;2024-01-11T04:41:01;103495.16;;;-2.71;75.27
82033;BME280;71595;52.180;4.512;2024-01-11T04:43:26;103503.91;;;-2.68;75.51
82033;BME280;71595;52.180;4.512;2024-01-11T04:45:52;103504.28;;;-2.72;75.72
82033;BME280;71595;52.180;4.512;2024-01-11T04:48:17;103511.38;;;-2.71;75.62
82033;BME280;71595;52.180;4.512;2024-01-11T04:50:44;103513.31;;;-2.79;75.71
82033;BME280;71595;52.180;4.512;2024-01-11T04:53:09;103520.13;;;-2.83;76.13
82033;BME280;71595;52.180;4.512;2024-01-11T04:55:35;103517.97;;;-2.88;75.66
82033;BME280;71595;52.180;4.512;2024-01-11T04:58:00;103509.19;;;-2.90;75.66
82033;BME280;71595;52.180;4.512;2024-01-11T05:00:25;103511.53;;;-2.87;75.83
82033;BME280;71595;52.180;4.512;2024-01-11T05:02:51;103512.94;;;-2.91;76.07
82033;BME280;71595;52.180;4.512;2024-01-11T05:05:16;103510.59;;;-2.94;75.60
82033;BME280;71595;52.180;4.512;2024-01-11T05:07:42;103510.84;;;-3.04;76.25
82033;BME280;71595;52.180;4.512;2024-01-11T05:10:07;103515.50;;;-2.98;76.31
82033;BME280;71595;52.180;4.512;2024-01-11T05:12:33;103501.16;;;-2.98;76.24
82033;BME280;71595;52.180;4.512;2024-01-11T05:14:58;103505.06;;;-3.01;76.16
82033;BME280;71595;52.180;4.512;2024-01-11T05:17:24;103529.59;;;-3.02;76.29
82033;BME280;71595;52.180;4.512;2024-01-11T05:19:50;103522.50;;;-3.03;76.15
82033;BME280;71595;52.180;4.512;2024-01-11T05:22:15;103503.78;;;-3.05;76.14
82033;BME280;71595;52.180;4.512;2024-01-11T05:24:40;103503.28;;;-3.09;76.65
82033;BME280;71595;52.180;4.512;2024-01-11T05:27:06;103513.34;;;-3.02;76.42
82033;BME280;71595;52.180;4.512;2024-01-11T05:29:31;103509.00;;;-3.03;76.39
82033;BME280;71595;52.180;4.512;2024-01-11T05:31:57;103518.47;;;-3.08;76.17
82033;BME280;71595;52.180;4.512;2024-01-11T05:34:22;103519.84;;;-3.12;76.23
82033;BME280;71595;52.180;4.512;2024-01-11T05:36:48;103520.22;;;-3.15;76.28
82033;BME280;71595;52.180;4.512;2024-01-11T05:39:13;103516.22;;;-3.19;75.72
82033;BME280;71595;52.180;4.512;2024-01-11T05:41:38;103523.59;;;-3.13;75.79
82033;BME280;71595;52.180;4.512;2024-01-11T05:44:04;103514.25;;;-3.25;76.08
82033;BME280;71595;52.180;4.512;2024-01-11T05:46:29;103506.56;;;-3.36;76.11
82033;BME280;71595;52.180;4.512;2024-01-11T05:48:55;103508.38;;;-3.52;75.79
82033;BME280;71595;52.180;4.512;2024-01-11T05:51:21;103512.00;;;-3.45;75.73
82033;BME280;71595;52.180;4.512;2024-01-11T05:53:46;103498.56;;;-3.53;75.83
82033;BME280;71595;52.180;4.512;2024-01-11T05:56:12;103498.13;;;-3.41;75.94
82033;BME280;71595;52.180;4.512;2024-01-11T05:58:37;103487.66;;;-3.59;76.36
82033;BME280;71595;52.180;4.512;2024-01-11T06:01:03;103497.94;;;-3.63;76.00
82033;BME280;71595;52.180;4.512;2024-01-11T06:03:29;103515.63;;;-3.84;76.10
82033;BME280;71595;52.180;4.512;2024-01-11T06:05:55;103514.63;;;-3.83;76.65
82033;BME280;71595;52.180;4.512;2024-01-11T06:08:20;103497.25;;;-3.88;76.79
82033;BME280;71595;52.180;4.512;2024-01-11T06:10:46;103497.25;;;-3.88;76.86
82033;BME280;71595;52.180;4.512;2024-01-11T06:13:11;103509.75;;;-3.87;77.30
82033;BME280;71595;52.180;4.512;2024-01-11T06:15:37;103519.72;;;-3.88;76.79
82033;BME280;71595;52.180;4.512;2024-01-11T06:18:02;103515.09;;;-3.79;76.29
82033;BME280;71595;52.180;4.512;2024-01-11T06:20:28;103527.50;;;-3.93;77.19
82033;BME280;71595;52.180;4.512;2024-01-11T06:22:53;103538.81;;;-3.98;76.56
82033;BME280;71595;52.180;4.512;2024-01-11T06:25:18;103543.75;;;-4.01;77.41
82033;BME280;71595;52.180;4.512;2024-01-11T06:27:44;103568.69;;;-3.91;77.23
82033;BME280;71595;52.180;4.512;2024-01-11T06:30:10;103570.03;;;-3.95;77.24
82033;BME280;71595;52.180;4.512;2024-01-11T06:32:36;103572.03;;;-3.89;76.82
82033;BME280;71595;52.180;4.512;2024-01-11T06:35:01;103575.63;;;-3.97;77.18
82033;BME280;71595;52.180;4.512;2024-01-11T06:37:28;103585.25;;;-3.94;77.44
82033;BME280;71595;52.180;4.512;2024-01-11T06:39:53;103588.94;;;-3.95;77.95
82033;BME280;71595;52.180;4.512;2024-01-11T06:42:18;103612.50;;;-3.81;77.93
82033;BME280;71595;52.180;4.512;2024-01-11T06:44:44;103620.91;;;-3.67;78.61
82033;BME280;71595;52.180;4.512;2024-01-11T06:47:09;103619.16;;;-3.60;78.32
82033;BME280;71595;52.180;4.512;2024-01-11T06:49:38;103614.56;;;-3.51;78.08
82033;BME280;71595;52.180;4.512;2024-01-11T06:52:03;103613.88;;;-3.45;77.62
82033;BME280;71595;52.180;4.512;2024-01-11T06:54:29;103608.16;;;-3.50;77.49
82033;BME280;71595;52.180;4.512;2024-01-11T06:56:56;103604.25;;;-3.48;77.94
82033;BME280;71595;52.180;4.512;2024-01-11T06:59:21;103599.47;;;-3.37;77.27
82033;BME280;71595;52.180;4.512;2024-01-11T07:01:47;103608.66;;;-3.47;77.94
82033;BME280;71595;52.180;4.512;2024-01-11T07:04:12;103604.22;;;-3.39;77.75
82033;BME280;71595;52.180;4.512;2024-01-11T07:06:37;103605.53;;;-3.35;77.50
82033;BME280;71595;52.180;4.512;2024-01-11T07:09:03;103606.75;;;-3.38;77.44
82033;BME280;71595;52.180;4.512;2024-01-11T07:11:28;103600.97;;;-3.35;77.50
82033;BME280;71595;52.180;4.512;2024-01-11T07:13:53;103595.56;;;-3.35;77.71
82033;BME280;71595;52.180;4.512;2024-01-11T07:16:19;103602.66;;;-3.34;78.21
82033;BME280;71595;52.180;4.512;2024-01-11T07:18:45;103601.94;;;-3.28;77.87
82033;BME280;71595;52.180;4.512;2024-01-11T07:21:10;103596.06;;;-3.31;77.74
82033;BME280;71595;52.180;4.512;2024-01-11T07:23:36;103584.59;;;-3.33;77.73
82033;BME280;71595;52.180;4.512;2024-01-11T07:26:01;103588.06;;;-3.25;77.72
82033;BME280;71595;52.180;4.512;2024-01-11T07:28:27;103578.75;;;-3.22;78.30
82033;BME280;71595;52.180;4.512;2024-01-11T07:30:53;103578.59;;;-3.20;78.10
82033;BME280;71595;52.180;4.512;2024-01-11T07:33:19;103576.00;;;-3.14;77.46
82033;BME280;71595;52.180;4.512;2024-01-11T07:35:46;103570.59;;;-3.14;77.43
82033;BME280;71595;52.180;4.512;2024-01-11T07:38:11;103565.78;;;-3.27;77.46
82033;BME280;71595;52.180;4.512;2024-01-11T07:43:59;103553.63;;;-3.31;77.26
82033;BME280;71595;52.180;4.512;2024-01-11T07:46:25;103557.06;;;-3.37;77.38
82033;BME280;71595;52.180;4.512;2024-01-11T07:48:50;103561.44;;;-3.36;77.91
82033;BME280;71595;52.180;4.512;2024-01-11T07:51:15;103565.41;;;-3.47;77.77
82033;BME280;71595;52.180;4.512;2024-01-11T07:53:41;103577.91;;;-3.46;78.10
82033;BME280;71595;52.180;4.512;2024-01-11T07:56:06;103576.88;;;-3.45;78.44
82033;BME280;71595;52.180;4.512;2024-01-11T07:58:32;103576.09;;;-3.53;77.95
82033;BME280;71595;52.180;4.512;2024-01-11T08:00:57;103591.59;;;-3.47;77.55
82033;BME280;71595;52.180;4.512;2024-01-11T08:03:22;103598.53;;;-3.53;78.17
82033;BME280;71595;52.180;4.512;2024-01-11T08:05:48;103595.13;;;-3.47;78.48
82033;BME280;71595;52.180;4.512;2024-01-11T08:08:15;103589.53;;;-3.45;78.45
82033;BME280;71595;52.180;4.512;2024-01-11T08:10:41;103597.47;;;-3.44;78.00
82033;BME280;71595;52.180;4.512;2024-01-11T08:13:06;103599.16;;;-3.42;78.41
82033;BME280;71595;52.180;4.512;2024-01-11T08:15:31;103601.88;;;-3.42;78.25
82033;BME280;71595;52.180;4.512;2024-01-11T08:17:57;103595.06;;;-3.38;78.51
82033;BME280;71595;52.180;4.512;2024-01-11T08:20:22;103606.50;;;-3.28;77.86
82033;BME280;71595;52.180;4.512;2024-01-11T08:22:47;103610.72;;;-3.26;77.81
82033;BME280;71595;52.180;4.512;2024-01-11T08:25:13;103610.19;;;-3.21;77.29
82033;BME280;71595;52.180;4.512;2024-01-11T08:27:38;103595.09;;;-3.15;77.62
82033;BME280;71595;52.180;4.512;2024-01-11T08:30:05;103594.25;;;-3.16;77.39
82033;BME280;71595;52.180;4.512;2024-01-11T08:32:30;103593.03;;;-3.13;77.41
82033;BME280;71595;52.180;4.512;2024-01-11T08:34:59;103598.06;;;-3.02;77.72
82033;BME280;71595;52.180;4.512;2024-01-11T08:37:24;103601.50;;;-2.93;77.38
82033;BME280;71595;52.180;4.512;2024-01-11T08:39:57;103602.31;;;-2.84;77.18
82033;BME280;71595;52.180;4.512;2024-01-11T08:42:23;103605.66;;;-2.82;77.03
82033;BME280;71595;52.180;4.512;2024-01-11T08:44:48;103598.75;;;-2.85;77.75
82033;BME280;71595;52.180;4.512;2024-01-11T08:47:13;103603.09;;;-2.76;77.36
82033;BME280;71595;52.180;4.512;2024-01-11T08:49:39;103611.56;;;-2.79;77.60
82033;BME280;71595;52.180;4.512;2024-01-11T08:52:05;103615.03;;;-2.70;76.94
82033;BME280;71595;52.180;4.512;2024-01-11T08:54:31;103614.66;;;-2.67;77.14
82033;BME280;71595;52.180;4.512;2024-01-11T08:56:58;103634.09;;;-2.63;76.79
82033;BME280;71595;52.180;4.512;2024-01-11T08:59:24;103636.81;;;-2.63;77.51
82033;BME280;71595;52.180;4.512;2024-01-11T09:01:51;103642.41;;;-2.50;77.03
82033;BME280;71595;52.180;4.512;2024-01-11T09:04:16;103641.31;;;-2.41;76.66
82033;BME280;71595;52.180;4.512;2024-01-11T09:06:43;103642.84;;;-2.38;76.75
82033;BME280;71595;52.180;4.512;2024-01-11T09:09:11;103653.09;;;-2.33;76.28
82033;BME280;71595;52.180;4.512;2024-01-11T09:11:37;103650.22;;;-2.32;76.49
82033;BME280;71595;52.180;4.512;2024-01-11T09:14:02;103655.25;;;-2.29;76.75
82033;BME280;71595;52.180;4.512;2024-01-11T09:16:28;103669.91;;;-2.23;76.35
82033;BME280;71595;52.180;4.512;2024-01-11T09:18:54;103676.28;;;-2.16;76.28
82033;BME280;71595;52.180;4.512;2024-01-11T09:21:19;103680.97;;;-2.10;77.05
82033;BME280;71595;52.180;4.512;2024-01-11T09:23:48;103688.22;;;-2.10;76.24
82033;BME280;71595;52.180;4.512;2024-01-11T09:26:13;103683.31;;;-2.07;76.51
82033;BME280;71595;52.180;4.512;2024-01-11T09:28:38;103690.38;;;-2.06;76.41
82033;BME280;71595;52.180;4.512;2024-01-11T09:31:04;103677.59;;;-1.97;76.30
82033;BME280;71595;52.180;4.512;2024-01-11T09:33:29;103684.03;;;-1.98;76.56
82033;BME280;71595;52.180;4.512;2024-01-11T09:35:55;103677.88;;;-1.92;76.60
82033;BME280;71595;52.180;4.512;2024-01-11T09:38:21;103679.03;;;-1.86;76.87
82033;BME280;71595;52.180;4.512;2024-01-11T09:41:04;103682.00;;;-1.81;76.57
82033;BME280;71595;52.180;4.512;2024-01-11T09:43:33;103685.00;;;-1.76;76.91
82033;BME280;71595;52.180;4.512;2024-01-11T09:46:04;103684.06;;;-1.68;76.91
82033;BME280;71595;52.180;4.512;2024-01-11T09:55:14;103702.28;;;-1.47;77.63
82033;BME280;71595;52.180;4.512;2024-01-11T09:57:44;103696.75;;;-1.39;77.89
82033;BME280;71595;52.180;4.512;2024-01-11T10:00:10;103701.97;;;-1.37;78.10
82033;BME280;71595;52.180;4.512;2024-01-11T10:02:38;103706.44;;;-1.30;78.13
82033;BME280;71595;52.180;4.512;2024-01-11T10:05:04;103701.78;;;-1.21;78.25
82033;BME280;71595;52.180;4.512;2024-01-11T10:07:32;103707.66;;;-1.17;78.25
82033;BME280;71595;52.180;4.512;2024-01-11T10:09:58;103702.13;;;-1.09;78.12
82033;BME280;71595;52.180;4.512;2024-01-11T10:12:24;103693.19;;;-1.03;78.28
82033;BME280;71595;52.180;4.512;2024-01-11T10:14:54;103690.28;;;-1.01;78.60
82033;BME280;71595;52.180;4.512;2024-01-11T10:17:19;103684.97;;;-0.95;78.61
82033;BME280;71595;52.180;4.512;2024-01-11T10:19:45;103678.69;;;-0.95;78.79
82033;BME280;71595;52.180;4.512;2024-01-11T10:22:10;103680.44;;;-0.87;78.81
82033;BME280;71595;52.180;4.512;2024-01-11T10:24:42;103685.66;;;-0.86;79.04
82033;BME280;71595;52.180;4.512;2024-01-11T10:27:11;103681.97;;;-0.78;79.10
82033;BME280;71595;52.180;4.512;2024-01-11T10:29:37;103677.66;;;-0.73;79.21
82033;BME280;71595;52.180;4.512;2024-01-11T10:32:06;103681.50;;;-0.67;79.05
82033;BME280;71595;52.180;4.512;2024-01-11T10:34:31;103684.44;;;-0.62;78.67
82033;BME280;71595;52.180;4.512;2024-01-11T10:36:56;103685.75;;;-0.58;79.00
82033;BME280;71595;52.180;4.512;2024-01-11T10:39:26;103673.66;;;-0.55;79.21
82033;BME280;71595;52.180;4.512;2024-01-11T10:42:00;103679.13;;;-0.48;78.95
82033;BME280;71595;52.180;4.512;2024-01-11T10:44:33;103671.88;;;-0.41;79.14
82033;BME280;71595;52.180;4.512;2024-01-11T10:46:59;103681.34;;;-0.37;79.21
82033;BME280;71595;52.180;4.512;2024-01-11T10:49:27;103676.78;;;-0.30;79.04
82033;BME280;71595;52.180;4.512;2024-01-11T10:52:00;103681.81;;;-0.27;79.04
82033;BME280;71595;52.180;4.512;2024-01-11T10:54:27;103692.28;;;-0.24;79.15
82033;BME280;71595;52.180;4.512;2024-01-11T10:56:54;103692.94;;;-0.22;79.81
82033;BME280;71595;52.180;4.512;2024-01-11T10:59:21;103694.00;;;-0.16;79.61
82033;BME280;71595;52.180;4.512;2024-01-11T11:01:55;103700.94;;;-0.13;79.87
82033;BME280;71595;52.180;4.512;2024-01-11T11:04:22;103718.97;;;-0.06;79.64
82033;BME280;71595;52.180;4.512;2024-01-11T11:06:50;103718.81;;;0.03;79.70
82033;BME280;71595;52.180;4.512;2024-01-11T11:09:17;103717.19;;;0.08;79.58
82033;BME280;71595;52.180;4.512;2024-01-11T11:11:42;103704.88;;;0.12;80.15
82033;BME280;71595;52.180;4.512;2024-01-11T11:14:09;103711.59;;;0.16;80.27
82033;BME280;71595;52.180;4.512;2024-01-11T11:16:35;103716.63;;;0.20;80.44
82033;BME280;71595;52.180;4.512;2024-01-11T11:19:01;103708.72;;;0.25;79.98
82033;BME280;71595;52.180;4.512;2024-01-11T11:21:26;103706.47;;;0.28;80.25
82033;BME280;71595;52.180;4.512;2024-01-11T11:23:52;103707.91;;;0.31;79.79
82033;BME280;71595;52.180;4.512;2024-01-11T11:26:17;103690.19;;;0.35;80.32
82033;BME280;71595;52.180;4.512;2024-01-11T11:28:43;103696.91;;;0.39;79.89
82033;BME280;71595;52.180;4.512;2024-01-11T11:31:11;103684.38;;;0.45;79.47
82033;BME280;71595;52.180;4.512;2024-01-11T11:33:37;103688.38;;;0.49;79.49
82033;BME280;71595;52.180;4.512;2024-01-11T11:36:03;103683.56;;;0.51;79.62
82033;BME280;71595;52.180;4.512;2024-01-11T11:38:30;103680.63;;;0.52;79.92
82033;BME280;71595;52.180;4.512;2024-01-11T11:40:57;103677.50;;;0.56;79.93
82033;BME280;71595;52.180;4.512;2024-01-11T11:43:24;103679.00;;;0.58;79.69
82033;BME280;71595;52.180;4.512;2024-01-11T11:45:51;103682.13;;;0.62;79.99
82033;BME280;71595;52.180;4.512;2024-01-11T11:51:11;103670.63;;;0.60;80.07
82033;BME280;71595;52.180;4.512;2024-01-11T11:53:37;103672.53;;;0.66;79.63
82033;BME280;71595;52.180;4.512;2024-01-11T11:56:04;103663.13;;;0.68;80.01
82033;BME280;71595;52.180;4.512;2024-01-11T11:58:31;103654.75;;;0.70;79.68
82033;BME280;71595;52.180;4.512;2024-01-11T12:00:58;103661.47;;;0.74;79.25
82033;BME280;71595;52.180;4.512;2024-01-11T12:03:31;103652.28;;;0.75;79.70
82033;BME280;71595;52.180;4.512;2024-01-11T12:05:57;103650.19;;;0.77;80.18
82033;BME280;71595;52.180;4.512;2024-01-11T12:08:23;103651.00;;;0.78;79.70
82033;BME280;71595;52.180;4.512;2024-01-11T12:10:48;103636.78;;;0.82;79.81
82033;BME280;71595;52.180;4.512;2024-01-11T12:13:14;103644.13;;;0.88;80.24
82033;BME280;71595;52.180;4.512;2024-01-11T12:15:40;103640.78;;;0.93;79.76
82033;BME280;71595;52.180;4.512;2024-01-11T12:18:06;103632.00;;;0.98;79.96
82033;BME280;71595;52.180;4.512;2024-01-11T12:20:32;103633.91;;;1.04;79.58
82033;BME280;71595;52.180;4.512;2024-01-11T12:22:58;103626.38;;;1.06;80.24
82033;BME280;71595;52.180;4.512;2024-01-11T12:25:24;103617.16;;;1.07;79.93
82033;BME280;71595;52.180;4.512;2024-01-11T12:27:49;103607.97;;;1.08;79.32
82033;BME280;71595;52.180;4.512;2024-01-11T12:30:17;103616.75;;;1.10;79.83
82033;BME280;71595;52.180;4.512;2024-01-11T12:32:43;103601.69;;;1.14;79.62
82033;BME280;71595;52.180;4.512;2024-01-11T12:35:08;103607.75;;;1.16;79.50
82033;BME280;71595;52.180;4.512;2024-01-11T12:37:34;103606.72;;;1.24;79.64
82033;BME280;71595;52.180;4.512;2024-01-11T12:40:00;103605.06;;;1.30;79.96
82033;BME280;71595;52.180;4.512;2024-01-11T12:42:28;103601.69;;;1.28;79.86
82033;BME280;71595;52.180;4.512;2024-01-11T12:44:54;103603.38;;;1.29;80.32
82033;BME280;71595;52.180;4.512;2024-01-11T12:47:20;103598.13;;;1.34;79.52
82033;BME280;71595;52.180;4.512;2024-01-11T12:49:46;103598.13;;;1.34;79.29
82033;BME280;71595;52.180;4.512;2024-01-11T12:52:18;103602.72;;;1.40;79.66
82033;BME280;71595;52.180;4.512;2024-01-11T12:54:44;103602.09;;;1.44;79.27
82033;BME280;71595;52.180;4.512;2024-01-11T12:57:17;103609.03;;;1.47;79.68
82033;BME280;71595;52.180;4.512;2024-01-11T12:59:44;103602.53;;;1.48;79.53